sensor_id;sensor_type;location;lat;lon;timestamp;P1;durP1;ratioP1;P2;durP2;ratioP2
7402;SDS011;3742;48.770;11.440;2022-09-09T00:00:47;6.50;;;2.20;;
7402;SDS011;3742;48.770;11.440;2022-09-09T00:03:19;3.80;;;2.27;;
7402;SDS011;3742;48.770;11.440;2022-09-09T00:05:53;6.07;;;3.00;;
7402;SDS011;3742;48.770;11.440;2022-09-09T00:08:30;6.23;;;2.57;;
7402;SDS011;3742;48.770;11.440;2022-09-09T00:11:07;3.43;;;2.37;;
7402;SDS011;3742;48.770;11.440;2022-09-09T00:13:40;4.93;;;2.20;;
7402;SDS011;3742;48.770;11.440;2022-09-09T00:16:14;2.73;;;2.17;;
7402;SDS011;3742;48.770;11.440;2022-09-09T00:18:49;3.03;;;2.20;;
7402;SDS011;3742;48.770;11.440;2022-09-09T00:21:22;4.13;;;2.30;;
7402;SDS011;3742;48.770;11.440;2022-09-09T00:23:54;6.47;;;2.30;;
7402;SDS011;3742;48.770;11.440;2022-09-09T00:26:24;2.63;;;2.40;;
7402;SDS011;3742;48.770;11.440;2022-09-09T00:29:03;3.00;;;2.30;;
7402;SDS011;3742;48.770;11.440;2022-09-09T00:31:38;3.67;;;2.20;;
7402;SDS011;3742;48.770;11.440;2022-09-09T00:34:11;3.00;;;2.20;;
7402;SDS011;3742;48.770;11.440;2022-09-09T00:36:42;4.90;;;2.00;;
7402;SDS011;3742;48.770;11.440;2022-09-09T00:39:23;5.47;;;2.20;;
7402;SDS011;3742;48.770;11.440;2022-09-09T00:42:05;3.87;;;2.77;;
7402;SDS011;3742;48.770;11.440;2022-09-09T00:44:50;3.37;;;2.20;;
7402;SDS011;3742;48.770;11.440;2022-09-09T00:47:25;2.60;;;2.40;;
7402;SDS011;3742;48.770;11.440;2022-09-09T00:50:11;2.53;;;2.17;;
7402;SDS011;3742;48.770;11.440;2022-09-09T00:52:47;4.27;;;2.30;;
7402;SDS011;3742;48.770;11.440;2022-09-09T00:55:24;4.40;;;2.33;;
7402;SDS011;3742;48.770;11.440;2022-09-09T00:57:59;3.93;;;2.20;;
7402;SDS011;3742;48.770;11.440;2022-09-09T01:00:29;4.30;;;2.50;;
7402;SDS011;3742;48.770;11.440;2022-09-09T01:05:57;2.93;;;2.30;;
7402;SDS011;3742;48.770;11.440;2022-09-09T01:08:36;3.57;;;2.20;;
7402;SDS011;3742;48.770;11.440;2022-09-09T01:11:10;4.13;;;2.20;;
7402;SDS011;3742;48.770;11.440;2022-09-09T01:13:45;2.80;;;1.83;;
7402;SDS011;3742;48.770;11.440;2022-09-09T01:16:14;4.20;;;2.20;;
7402;SDS011;3742;48.770;11.440;2022-09-09T01:18:44;4.20;;;2.30;;
7402;SDS011;3742;48.770;11.440;2022-09-09T01:21:19;5.40;;;2.30;;
7402;SDS011;3742;48.770;11.440;2022-09-09T01:23:59;3.70;;;2.20;;
7402;SDS011;3742;48.770;11.440;2022-09-09T01:26:47;10.47;;;2.60;;
7402;SDS011;3742;48.770;11.440;2022-09-09T01:29:24;4.20;;;3.17;;
7402;SDS011;3742;48.770;11.440;2022-09-09T01:31:53;4.50;;;2.43;;
7402;SDS011;3742;48.770;11.440;2022-09-09T01:34:24;5.37;;;2.23;;
7402;SDS011;3742;48.770;11.440;2022-09-09T01:36:56;3.57;;;2.37;;
7402;SDS011;3742;48.770;11.440;2022-09-09T01:39:27;2.60;;;2.40;;
7402;SDS011;3742;48.770;11.440;2022-09-09T01:42:02;2.37;;;2.03;;
7402;SDS011;3742;48.770;11.440;2022-09-09T01:44:32;2.57;;;2.37;;
7402;SDS011;3742;48.770;11.440;2022-09-09T01:47:02;4.53;;;3.03;;
7402;SDS011;3742;48.770;11.440;2022-09-09T01:49:31;4.13;;;2.77;;
7402;SDS011;3742;48.770;11.440;2022-09-09T01:52:08;4.47;;;2.77;;
7402;SDS011;3742;48.770;11.440;2022-09-09T01:54:38;4.13;;;2.70;;
7402;SDS011;3742;48.770;11.440;2022-09-09T01:57:17;3.27;;;2.90;;
7402;SDS011;3742;48.770;11.440;2022-09-09T01:59:57;5.07;;;2.73;;
7402;SDS011;3742;48.770;11.440;2022-09-09T02:02:42;3.17;;;2.70;;
7402;SDS011;3742;48.770;11.440;2022-09-09T02:05:25;3.43;;;2.27;;
7402;SDS011;3742;48.770;11.440;2022-09-09T02:08:00;4.60;;;2.70;;
7402;SDS011;3742;48.770;11.440;2022-09-09T02:10:45;4.00;;;2.80;;
7402;SDS011;3742;48.770;11.440;2022-09-09T02:13:30;3.70;;;2.73;;
7402;SDS011;3742;48.770;11.440;2022-09-09T02:16:02;3.30;;;2.67;;
7402;SDS011;3742;48.770;11.440;2022-09-09T02:18:35;3.13;;;2.83;;
7402;SDS011;3742;48.770;11.440;2022-09-09T02:21:08;3.80;;;2.60;;
7402;SDS011;3742;48.770;11.440;2022-09-09T02:23:38;5.17;;;2.60;;
7402;SDS011;3742;48.770;11.440;2022-09-09T02:26:10;2.87;;;2.40;;
7402;SDS011;3742;48.770;11.440;2022-09-09T02:28:50;3.40;;;2.47;;
7402;SDS011;3742;48.770;11.440;2022-09-09T02:31:20;2.97;;;2.67;;
7402;SDS011;3742;48.770;11.440;2022-09-09T02:33:53;3.13;;;2.47;;
7402;SDS011;3742;48.770;11.440;2022-09-09T02:36:26;4.23;;;2.90;;
7402;SDS011;3742;48.770;11.440;2022-09-09T02:38:57;6.17;;;2.87;;
7402;SDS011;3742;48.770;11.440;2022-09-09T02:41:32;4.20;;;2.73;;
7402;SDS011;3742;48.770;11.440;2022-09-09T02:44:04;4.63;;;3.47;;
7402;SDS011;3742;48.770;11.440;2022-09-09T02:46:41;11.40;;;2.67;;
7402;SDS011;3742;48.770;11.440;2022-09-09T02:49:20;3.47;;;3.17;;
7402;SDS011;3742;48.770;11.440;2022-09-09T02:51:55;4.07;;;3.23;;
7402;SDS011;3742;48.770;11.440;2022-09-09T02:54:29;4.03;;;3.43;;
7402;SDS011;3742;48.770;11.440;2022-09-09T02:57:04;4.13;;;3.70;;
7402;SDS011;3742;48.770;11.440;2022-09-09T02:59:39;5.57;;;3.47;;
7402;SDS011;3742;48.770;11.440;2022-09-09T03:02:09;5.00;;;4.43;;
7402;SDS011;3742;48.770;11.440;2022-09-09T03:04:38;5.43;;;4.00;;
7402;SDS011;3742;48.770;11.440;2022-09-09T03:07:08;4.77;;;4.17;;
7402;SDS011;3742;48.770;11.440;2022-09-09T03:09:37;4.33;;;3.93;;
7402;SDS011;3742;48.770;11.440;2022-09-09T03:12:05;5.43;;;4.23;;
7402;SDS011;3742;48.770;11.440;2022-09-09T03:14:34;5.37;;;4.53;;
7402;SDS011;3742;48.770;11.440;2022-09-09T03:17:04;5.60;;;4.00;;
7402;SDS011;3742;48.770;11.440;2022-09-09T03:19:38;4.63;;;4.13;;
7402;SDS011;3742;48.770;11.440;2022-09-09T03:22:09;5.13;;;4.63;;
7402;SDS011;3742;48.770;11.440;2022-09-09T03:24:40;5.67;;;4.03;;
7402;SDS011;3742;48.770;11.440;2022-09-09T03:27:09;4.40;;;4.00;;
7402;SDS011;3742;48.770;11.440;2022-09-09T03:29:38;4.60;;;3.93;;
7402;SDS011;3742;48.770;11.440;2022-09-09T03:32:13;6.33;;;4.30;;
7402;SDS011;3742;48.770;11.440;2022-09-09T03:34:44;5.40;;;4.13;;
7402;SDS011;3742;48.770;11.440;2022-09-09T03:37:14;5.63;;;3.97;;
7402;SDS011;3742;48.770;11.440;2022-09-09T03:39:44;4.40;;;3.93;;
7402;SDS011;3742;48.770;11.440;2022-09-09T03:42:14;5.10;;;4.03;;
7402;SDS011;3742;48.770;11.440;2022-09-09T03:44:48;5.87;;;3.67;;
7402;SDS011;3742;48.770;11.440;2022-09-09T03:47:21;3.97;;;3.37;;
7402;SDS011;3742;48.770;11.440;2022-09-09T03:49:54;5.40;;;3.30;;
7402;SDS011;3742;48.770;11.440;2022-09-09T03:52:22;4.80;;;3.50;;
7402;SDS011;3742;48.770;11.440;2022-09-09T03:54:53;4.00;;;2.87;;
7402;SDS011;3742;48.770;11.440;2022-09-09T03:57:22;3.07;;;2.70;;
7402;SDS011;3742;48.770;11.440;2022-09-09T03:59:51;3.63;;;3.33;;
7402;SDS011;3742;48.770;11.440;2022-09-09T04:02:40;3.43;;;2.97;;
7402;SDS011;3742;48.770;11.440;2022-09-09T04:05:13;4.00;;;2.60;;
7402;SDS011;3742;48.770;11.440;2022-09-09T04:07:44;6.47;;;2.90;;
7402;SDS011;3742;48.770;11.440;2022-09-09T04:10:12;3.40;;;3.10;;
7402;SDS011;3742;48.770;11.440;2022-09-09T04:12:43;4.63;;;3.10;;
7402;SDS011;3742;48.770;11.440;2022-09-09T04:15:15;3.33;;;2.80;;
7402;SDS011;3742;48.770;11.440;2022-09-09T04:17:47;3.00;;;2.70;;
7402;SDS011;3742;48.770;11.440;2022-09-09T04:20:17;2.70;;;2.40;;
7402;SDS011;3742;48.770;11.440;2022-09-09T04:22:47;2.67;;;2.47;;
7402;SDS011;3742;48.770;11.440;2022-09-09T04:25:15;2.43;;;2.23;;
7402;SDS011;3742;48.770;11.440;2022-09-09T04:27:45;3.13;;;2.40;;
7402;SDS011;3742;48.770;11.440;2022-09-09T04:30:14;3.57;;;2.87;;
7402;SDS011;3742;48.770;11.440;2022-09-09T04:32:43;2.87;;;2.40;;
7402;SDS011;3742;48.770;11.440;2022-09-09T04:35:13;3.30;;;2.67;;
7402;SDS011;3742;48.770;11.440;2022-09-09T04:37:42;6.37;;;2.77;;
7402;SDS011;3742;48.770;11.440;2022-09-09T04:40:11;4.80;;;2.53;;
7402;SDS011;3742;48.770;11.440;2022-09-09T04:42:40;3.63;;;2.63;;
7402;SDS011;3742;48.770;11.440;2022-09-09T04:45:13;3.13;;;2.83;;
7402;SDS011;3742;48.770;11.440;2022-09-09T04:47:42;3.20;;;2.60;;
7402;SDS011;3742;48.770;11.440;2022-09-09T04:50:10;3.13;;;2.80;;
7402;SDS011;3742;48.770;11.440;2022-09-09T04:52:41;4.10;;;2.73;;
7402;SDS011;3742;48.770;11.440;2022-09-09T04:55:10;2.57;;;2.10;;
7402;SDS011;3742;48.770;11.440;2022-09-09T04:57:43;1.97;;;1.87;;
7402;SDS011;3742;48.770;11.440;2022-09-09T05:00:12;2.47;;;2.27;;
7402;SDS011;3742;48.770;11.440;2022-09-09T05:02:42;2.70;;;2.43;;
7402;SDS011;3742;48.770;11.440;2022-09-09T05:05:10;4.60;;;2.37;;
7402;SDS011;3742;48.770;11.440;2022-09-09T05:07:39;2.77;;;2.30;;
7402;SDS011;3742;48.770;11.440;2022-09-09T05:10:09;2.90;;;2.20;;
7402;SDS011;3742;48.770;11.440;2022-09-09T05:12:38;3.73;;;2.20;;
7402;SDS011;3742;48.770;11.440;2022-09-09T05:15:07;3.23;;;2.13;;
7402;SDS011;3742;48.770;11.440;2022-09-09T05:17:36;3.10;;;2.40;;
7402;SDS011;3742;48.770;11.440;2022-09-09T05:20:05;3.40;;;2.33;;
7402;SDS011;3742;48.770;11.440;2022-09-09T05:22:37;3.90;;;2.87;;
7402;SDS011;3742;48.770;11.440;2022-09-09T05:25:07;3.13;;;2.63;;
7402;SDS011;3742;48.770;11.440;2022-09-09T05:27:39;4.27;;;2.57;;
7402;SDS011;3742;48.770;11.440;2022-09-09T05:30:09;2.40;;;2.10;;
7402;SDS011;3742;48.770;11.440;2022-09-09T05:32:37;3.43;;;2.47;;
7402;SDS011;3742;48.770;11.440;2022-09-09T05:35:07;3.43;;;2.60;;
7402;SDS011;3742;48.770;11.440;2022-09-09T05:37:38;7.27;;;2.97;;
7402;SDS011;3742;48.770;11.440;2022-09-09T05:40:07;3.67;;;2.47;;
7402;SDS011;3742;48.770;11.440;2022-09-09T05:42:37;3.07;;;2.40;;
7402;SDS011;3742;48.770;11.440;2022-09-09T05:45:07;4.13;;;2.60;;
7402;SDS011;3742;48.770;11.440;2022-09-09T05:47:38;3.37;;;2.33;;
7402;SDS011;3742;48.770;11.440;2022-09-09T05:50:09;2.70;;;2.43;;
7402;SDS011;3742;48.770;11.440;2022-09-09T05:52:37;2.60;;;2.40;;
7402;SDS011;3742;48.770;11.440;2022-09-09T05:55:07;2.80;;;2.00;;
7402;SDS011;3742;48.770;11.440;2022-09-09T05:57:38;3.57;;;2.17;;
7402;SDS011;3742;48.770;11.440;2022-09-09T06:00:08;3.67;;;2.37;;
7402;SDS011;3742;48.770;11.440;2022-09-09T06:02:40;5.73;;;2.57;;
7402;SDS011;3742;48.770;11.440;2022-09-09T06:05:11;5.13;;;2.40;;
7402;SDS011;3742;48.770;11.440;2022-09-09T06:07:40;2.20;;;1.97;;
7402;SDS011;3742;48.770;11.440;2022-09-09T06:10:10;3.10;;;2.27;;
7402;SDS011;3742;48.770;11.440;2022-09-09T06:12:41;5.70;;;3.03;;
7402;SDS011;3742;48.770;11.440;2022-09-09T06:15:11;3.57;;;2.20;;
7402;SDS011;3742;48.770;11.440;2022-09-09T06:17:42;3.90;;;2.90;;
7402;SDS011;3742;48.770;11.440;2022-09-09T06:20:20;3.53;;;2.30;;
7402;SDS011;3742;48.770;11.440;2022-09-09T06:22:49;3.57;;;2.47;;
7402;SDS011;3742;48.770;11.440;2022-09-09T06:25:17;4.10;;;2.43;;
7402;SDS011;3742;48.770;11.440;2022-09-09T06:27:49;4.63;;;3.00;;
7402;SDS011;3742;48.770;11.440;2022-09-09T06:30:17;8.03;;;3.70;;
7402;SDS011;3742;48.770;11.440;2022-09-09T06:32:46;5.33;;;3.33;;
7402;SDS011;3742;48.770;11.440;2022-09-09T06:35:14;7.10;;;3.43;;
7402;SDS011;3742;48.770;11.440;2022-09-09T06:37:44;6.83;;;3.00;;
7402;SDS011;3742;48.770;11.440;2022-09-09T06:40:17;5.50;;;2.90;;
7402;SDS011;3742;48.770;11.440;2022-09-09T06:42:46;8.90;;;3.10;;
7402;SDS011;3742;48.770;11.440;2022-09-09T06:45:33;10.97;;;2.63;;
7402;SDS011;3742;48.770;11.440;2022-09-09T06:48:04;8.90;;;3.17;;
7402;SDS011;3742;48.770;11.440;2022-09-09T06:50:32;4.90;;;2.20;;
7402;SDS011;3742;48.770;11.440;2022-09-09T06:53:02;5.67;;;2.63;;
7402;SDS011;3742;48.770;11.440;2022-09-09T06:55:31;3.97;;;2.60;;
7402;SDS011;3742;48.770;11.440;2022-09-09T06:58:00;4.87;;;2.70;;
7402;SDS011;3742;48.770;11.440;2022-09-09T07:00:29;3.50;;;2.47;;
7402;SDS011;3742;48.770;11.440;2022-09-09T07:03:00;4.63;;;2.60;;
7402;SDS011;3742;48.770;11.440;2022-09-09T07:05:29;4.00;;;2.57;;
7402;SDS011;3742;48.770;11.440;2022-09-09T07:07:58;4.83;;;2.30;;
7402;SDS011;3742;48.770;11.440;2022-09-09T07:10:27;3.23;;;2.50;;
7402;SDS011;3742;48.770;11.440;2022-09-09T07:12:55;4.77;;;2.60;;
7402;SDS011;3742;48.770;11.440;2022-09-09T07:15:25;3.33;;;2.20;;
7402;SDS011;3742;48.770;11.440;2022-09-09T07:17:54;2.60;;;2.23;;
7402;SDS011;3742;48.770;11.440;2022-09-09T07:20:24;3.47;;;2.23;;
7402;SDS011;3742;48.770;11.440;2022-09-09T07:22:54;2.77;;;1.90;;
7402;SDS011;3742;48.770;11.440;2022-09-09T07:25:23;3.30;;;2.13;;
7402;SDS011;3742;48.770;11.440;2022-09-09T07:27:56;4.00;;;2.57;;
7402;SDS011;3742;48.770;11.440;2022-09-09T07:30:25;2.40;;;2.20;;
7402;SDS011;3742;48.770;11.440;2022-09-09T07:32:55;5.10;;;1.97;;
7402;SDS011;3742;48.770;11.440;2022-09-09T07:35:27;3.83;;;2.20;;
7402;SDS011;3742;48.770;11.440;2022-09-09T07:37:56;4.50;;;2.70;;
7402;SDS011;3742;48.770;11.440;2022-09-09T07:40:25;3.70;;;2.60;;
7402;SDS011;3742;48.770;11.440;2022-09-09T07:42:54;5.87;;;2.57;;
7402;SDS011;3742;48.770;11.440;2022-09-09T07:45:23;2.53;;;2.13;;
7402;SDS011;3742;48.770;11.440;2022-09-09T07:47:51;8.40;;;2.60;;
7402;SDS011;3742;48.770;11.440;2022-09-09T07:50:20;7.13;;;2.73;;
7402;SDS011;3742;48.770;11.440;2022-09-09T07:52:51;6.43;;;2.50;;
7402;SDS011;3742;48.770;11.440;2022-09-09T07:55:20;6.23;;;2.70;;
7402;SDS011;3742;48.770;11.440;2022-09-09T07:57:52;5.40;;;2.80;;
7402;SDS011;3742;48.770;11.440;2022-09-09T08:00:22;2.40;;;2.20;;
7402;SDS011;3742;48.770;11.440;2022-09-09T08:03:00;4.90;;;2.60;;
7402;SDS011;3742;48.770;11.440;2022-09-09T08:05:33;4.03;;;2.47;;
7402;SDS011;3742;48.770;11.440;2022-09-09T08:08:03;4.67;;;2.67;;
7402;SDS011;3742;48.770;11.440;2022-09-09T08:10:32;8.63;;;2.83;;
7402;SDS011;3742;48.770;11.440;2022-09-09T08:13:01;6.63;;;2.97;;
7402;SDS011;3742;48.770;11.440;2022-09-09T08:15:47;6.27;;;2.40;;
7402;SDS011;3742;48.770;11.440;2022-09-09T08:18:17;4.33;;;2.50;;
7402;SDS011;3742;48.770;11.440;2022-09-09T08:20:46;4.47;;;2.50;;
7402;SDS011;3742;48.770;11.440;2022-09-09T08:23:16;6.07;;;2.40;;
7402;SDS011;3742;48.770;11.440;2022-09-09T08:25:45;3.60;;;2.13;;
7402;SDS011;3742;48.770;11.440;2022-09-09T08:28:16;6.53;;;2.07;;
7402;SDS011;3742;48.770;11.440;2022-09-09T08:30:44;11.77;;;2.50;;
7402;SDS011;3742;48.770;11.440;2022-09-09T08:33:15;4.13;;;2.40;;
7402;SDS011;3742;48.770;11.440;2022-09-09T08:35:49;3.53;;;1.93;;
7402;SDS011;3742;48.770;11.440;2022-09-09T08:38:20;2.20;;;2.00;;
7402;SDS011;3742;48.770;11.440;2022-09-09T08:40:49;3.63;;;2.07;;
7402;SDS011;3742;48.770;11.440;2022-09-09T08:43:18;4.83;;;2.30;;
7402;SDS011;3742;48.770;11.440;2022-09-09T08:45:49;4.03;;;1.90;;
7402;SDS011;3742;48.770;11.440;2022-09-09T08:48:22;2.83;;;1.70;;
7402;SDS011;3742;48.770;11.440;2022-09-09T08:51:02;5.43;;;1.77;;
7402;SDS011;3742;48.770;11.440;2022-09-09T08:53:38;2.87;;;1.60;;
7402;SDS011;3742;48.770;11.440;2022-09-09T08:56:11;2.33;;;1.30;;
7402;SDS011;3742;48.770;11.440;2022-09-09T08:58:51;4.13;;;1.90;;
7402;SDS011;3742;48.770;11.440;2022-09-09T09:01:42;2.67;;;1.67;;
7402;SDS011;3742;48.770;11.440;2022-09-09T09:04:34;1.77;;;1.47;;
7402;SDS011;3742;48.770;11.440;2022-09-09T09:07:10;3.93;;;1.70;;
7402;SDS011;3742;48.770;11.440;2022-09-09T09:09:52;2.10;;;1.60;;
7402;SDS011;3742;48.770;11.440;2022-09-09T09:12:29;2.67;;;1.90;;
7402;SDS011;3742;48.770;11.440;2022-09-09T09:15:00;3.43;;;1.87;;
7402;SDS011;3742;48.770;11.440;2022-09-09T09:17:29;1.50;;;1.40;;
7402;SDS011;3742;48.770;11.440;2022-09-09T09:20:00;2.53;;;1.50;;
7402;SDS011;3742;48.770;11.440;2022-09-09T09:22:32;4.27;;;1.67;;
7402;SDS011;3742;48.770;11.440;2022-09-09T09:25:11;5.10;;;1.60;;
7402;SDS011;3742;48.770;11.440;2022-09-09T09:27:46;3.57;;;1.53;;
7402;SDS011;3742;48.770;11.440;2022-09-09T09:30:19;4.80;;;1.50;;
7402;SDS011;3742;48.770;11.440;2022-09-09T09:33:01;2.97;;;1.53;;
7402;SDS011;3742;48.770;11.440;2022-09-09T09:35:31;2.67;;;1.37;;
7402;SDS011;3742;48.770;11.440;2022-09-09T09:38:10;2.53;;;1.50;;
7402;SDS011;3742;48.770;11.440;2022-09-09T09:41:06;1.50;;;1.20;;
7402;SDS011;3742;48.770;11.440;2022-09-09T09:43:37;1.43;;;1.33;;
7402;SDS011;3742;48.770;11.440;2022-09-09T09:46:18;2.33;;;1.30;;
7402;SDS011;3742;48.770;11.440;2022-09-09T09:48:56;1.20;;;1.10;;
7402;SDS011;3742;48.770;11.440;2022-09-09T09:51:26;2.63;;;1.40;;
7402;SDS011;3742;48.770;11.440;2022-09-09T09:54:03;1.23;;;0.90;;
7402;SDS011;3742;48.770;11.440;2022-09-09T09:56:39;2.03;;;1.10;;
7402;SDS011;3742;48.770;11.440;2022-09-09T09:59:19;1.93;;;1.07;;
7402;SDS011;3742;48.770;11.440;2022-09-09T10:02:16;2.47;;;0.90;;
7402;SDS011;3742;48.770;11.440;2022-09-09T10:05:00;1.10;;;0.90;;
7402;SDS011;3742;48.770;11.440;2022-09-09T10:07:35;2.07;;;0.90;;
7402;SDS011;3742;48.770;11.440;2022-09-09T10:10:05;1.80;;;1.03;;
7402;SDS011;3742;48.770;11.440;2022-09-09T10:12:40;1.70;;;1.07;;
7402;SDS011;3742;48.770;11.440;2022-09-09T10:15:21;0.90;;;0.80;;
7402;SDS011;3742;48.770;11.440;2022-09-09T10:17:56;2.60;;;1.10;;
7402;SDS011;3742;48.770;11.440;2022-09-09T10:20:32;2.83;;;1.13;;
7402;SDS011;3742;48.770;11.440;2022-09-09T10:23:09;1.93;;;1.23;;
7402;SDS011;3742;48.770;11.440;2022-09-09T10:25:54;1.70;;;1.30;;
7402;SDS011;3742;48.770;11.440;2022-09-09T10:28:46;1.53;;;1.43;;
7402;SDS011;3742;48.770;11.440;2022-09-09T10:31:24;1.30;;;1.03;;
7402;SDS011;3742;48.770;11.440;2022-09-09T10:34:01;1.27;;;1.10;;
7402;SDS011;3742;48.770;11.440;2022-09-09T10:36:34;1.00;;;0.93;;
7402;SDS011;3742;48.770;11.440;2022-09-09T10:39:12;1.57;;;1.00;;
7402;SDS011;3742;48.770;11.440;2022-09-09T10:41:46;2.37;;;0.93;;
7402;SDS011;3742;48.770;11.440;2022-09-09T10:44:30;1.47;;;1.37;;
7402;SDS011;3742;48.770;11.440;2022-09-09T10:47:17;2.63;;;1.23;;
7402;SDS011;3742;48.770;11.440;2022-09-09T10:50:12;2.13;;;1.30;;
7402;SDS011;3742;48.770;11.440;2022-09-09T10:52:53;2.30;;;1.30;;
7402;SDS011;3742;48.770;11.440;2022-09-09T10:55:31;2.50;;;1.23;;
7402;SDS011;3742;48.770;11.440;2022-09-09T10:58:03;3.47;;;1.23;;
7402;SDS011;3742;48.770;11.440;2022-09-09T11:00:36;2.57;;;1.10;;
7402;SDS011;3742;48.770;11.440;2022-09-09T11:03:09;4.60;;;1.20;;
7402;SDS011;3742;48.770;11.440;2022-09-09T11:05:44;2.73;;;2.00;;
7402;SDS011;3742;48.770;11.440;2022-09-09T11:08:17;1.57;;;1.03;;
7402;SDS011;3742;48.770;11.440;2022-09-09T11:10:51;2.40;;;1.17;;
7402;SDS011;3742;48.770;11.440;2022-09-09T11:13:26;3.83;;;1.40;;
7402;SDS011;3742;48.770;11.440;2022-09-09T11:16:03;3.10;;;1.40;;
7402;SDS011;3742;48.770;11.440;2022-09-09T11:18:44;2.00;;;1.07;;
7402;SDS011;3742;48.770;11.440;2022-09-09T11:21:17;4.63;;;1.30;;
7402;SDS011;3742;48.770;11.440;2022-09-09T11:23:51;3.87;;;1.70;;
7402;SDS011;3742;48.770;11.440;2022-09-09T11:26:28;3.40;;;1.33;;
7402;SDS011;3742;48.770;11.440;2022-09-09T11:29:03;2.63;;;1.40;;
7402;SDS011;3742;48.770;11.440;2022-09-09T11:31:54;2.23;;;1.70;;
7402;SDS011;3742;48.770;11.440;2022-09-09T11:34:35;1.57;;;1.23;;
7402;SDS011;3742;48.770;11.440;2022-09-09T11:37:11;1.80;;;1.60;;
7402;SDS011;3742;48.770;11.440;2022-09-09T11:40:00;1.30;;;1.20;;
7402;SDS011;3742;48.770;11.440;2022-09-09T11:42:44;3.50;;;1.60;;
7402;SDS011;3742;48.770;11.440;2022-09-09T11:45:21;3.77;;;1.60;;
7402;SDS011;3742;48.770;11.440;2022-09-09T11:47:53;4.17;;;1.67;;
7402;SDS011;3742;48.770;11.440;2022-09-09T11:53:18;1.97;;;1.70;;
7402;SDS011;3742;48.770;11.440;2022-09-09T11:56:03;3.30;;;1.70;;
7402;SDS011;3742;48.770;11.440;2022-09-09T11:58:43;4.20;;;1.50;;
7402;SDS011;3742;48.770;11.440;2022-09-09T12:04:17;2.47;;;1.50;;
7402;SDS011;3742;48.770;11.440;2022-09-09T12:06:56;3.57;;;1.67;;
7402;SDS011;3742;48.770;11.440;2022-09-09T12:09:28;2.00;;;1.37;;
7402;SDS011;3742;48.770;11.440;2022-09-09T12:12:07;2.13;;;1.27;;
7402;SDS011;3742;48.770;11.440;2022-09-09T12:17:58;1.77;;;1.53;;
7402;SDS011;3742;48.770;11.440;2022-09-09T12:20:34;2.13;;;1.50;;
7402;SDS011;3742;48.770;11.440;2022-09-09T12:23:44;2.17;;;1.70;;
7402;SDS011;3742;48.770;11.440;2022-09-09T12:26:22;1.67;;;1.40;;
7402;SDS011;3742;48.770;11.440;2022-09-09T12:29:06;1.83;;;1.47;;
7402;SDS011;3742;48.770;11.440;2022-09-09T12:31:46;1.73;;;1.43;;
7402;SDS011;3742;48.770;11.440;2022-09-09T12:34:29;2.40;;;1.70;;
7402;SDS011;3742;48.770;11.440;2022-09-09T12:37:04;4.70;;;1.93;;
7402;SDS011;3742;48.770;11.440;2022-09-09T12:39:43;2.20;;;1.53;;
7402;SDS011;3742;48.770;11.440;2022-09-09T12:42:15;2.10;;;1.73;;
7402;SDS011;3742;48.770;11.440;2022-09-09T12:44:52;4.33;;;1.23;;
7402;SDS011;3742;48.770;11.440;2022-09-09T12:51:16;2.20;;;1.50;;
7402;SDS011;3742;48.770;11.440;2022-09-09T12:53:49;2.63;;;1.43;;
7402;SDS011;3742;48.770;11.440;2022-09-09T12:56:27;4.33;;;1.60;;
7402;SDS011;3742;48.770;11.440;2022-09-09T12:58:57;2.30;;;1.50;;
7402;SDS011;3742;48.770;11.440;2022-09-09T13:01:26;2.97;;;1.43;;
7402;SDS011;3742;48.770;11.440;2022-09-09T13:03:58;5.17;;;1.90;;
7402;SDS011;3742;48.770;11.440;2022-09-09T13:06:32;1.90;;;1.33;;
7402;SDS011;3742;48.770;11.440;2022-09-09T13:09:08;2.57;;;1.30;;
7402;SDS011;3742;48.770;11.440;2022-09-09T13:11:37;2.67;;;1.50;;
7402;SDS011;3742;48.770;11.440;2022-09-09T13:14:12;3.93;;;1.30;;
7402;SDS011;3742;48.770;11.440;2022-09-09T13:16:53;3.87;;;1.50;;
7402;SDS011;3742;48.770;11.440;2022-09-09T13:19:24;4.33;;;1.80;;
7402;SDS011;3742;48.770;11.440;2022-09-09T13:21:54;1.93;;;1.30;;
7402;SDS011;3742;48.770;11.440;2022-09-09T13:24:25;4.47;;;1.60;;
7402;SDS011;3742;48.770;11.440;2022-09-09T13:26:56;2.67;;;1.40;;
7402;SDS011;3742;48.770;11.440;2022-09-09T13:29:25;6.00;;;1.57;;
7402;SDS011;3742;48.770;11.440;2022-09-09T13:31:54;1.93;;;1.50;;
7402;SDS011;3742;48.770;11.440;2022-09-09T13:34:34;1.87;;;1.33;;
7402;SDS011;3742;48.770;11.440;2022-09-09T13:37:04;3.30;;;1.67;;
7402;SDS011;3742;48.770;11.440;2022-09-09T13:39:34;2.80;;;1.43;;
7402;SDS011;3742;48.770;11.440;2022-09-09T13:42:04;2.17;;;1.47;;
7402;SDS011;3742;48.770;11.440;2022-09-09T13:44:35;2.97;;;1.20;;
7402;SDS011;3742;48.770;11.440;2022-09-09T13:47:05;3.63;;;1.93;;
7402;SDS011;3742;48.770;11.440;2022-09-09T13:49:45;3.50;;;1.40;;
7402;SDS011;3742;48.770;11.440;2022-09-09T13:52:14;4.27;;;1.93;;
7402;SDS011;3742;48.770;11.440;2022-09-09T13:54:46;2.33;;;1.40;;
7402;SDS011;3742;48.770;11.440;2022-09-09T13:57:16;1.17;;;1.07;;
7402;SDS011;3742;48.770;11.440;2022-09-09T13:59:46;3.47;;;1.47;;
7402;SDS011;3742;48.770;11.440;2022-09-09T14:02:35;1.97;;;1.10;;
7402;SDS011;3742;48.770;11.440;2022-09-09T14:05:19;2.67;;;1.40;;
7402;SDS011;3742;48.770;11.440;2022-09-09T14:07:53;2.30;;;1.30;;
7402;SDS011;3742;48.770;11.440;2022-09-09T14:10:36;3.47;;;1.27;;
7402;SDS011;3742;48.770;11.440;2022-09-09T14:13:05;2.70;;;1.10;;
7402;SDS011;3742;48.770;11.440;2022-09-09T14:15:35;2.73;;;1.50;;
7402;SDS011;3742;48.770;11.440;2022-09-09T14:18:03;2.63;;;1.30;;
7402;SDS011;3742;48.770;11.440;2022-09-09T14:20:34;1.73;;;1.27;;
7402;SDS011;3742;48.770;11.440;2022-09-09T14:23:04;2.13;;;1.33;;
7402;SDS011;3742;48.770;11.440;2022-09-09T14:25:35;4.70;;;1.57;;
7402;SDS011;3742;48.770;11.440;2022-09-09T14:28:24;1.67;;;1.00;;
7402;SDS011;3742;48.770;11.440;2022-09-09T14:31:19;5.20;;;1.60;;
7402;SDS011;3742;48.770;11.440;2022-09-09T14:33:50;2.50;;;1.30;;
7402;SDS011;3742;48.770;11.440;2022-09-09T14:36:27;1.70;;;0.90;;
7402;SDS011;3742;48.770;11.440;2022-09-09T14:39:11;3.17;;;1.37;;
7402;SDS011;3742;48.770;11.440;2022-09-09T14:41:42;2.87;;;1.17;;
7402;SDS011;3742;48.770;11.440;2022-09-09T14:44:14;1.27;;;1.00;;
7402;SDS011;3742;48.770;11.440;2022-09-09T14:46:55;4.27;;;1.40;;
7402;SDS011;3742;48.770;11.440;2022-09-09T14:49:36;2.60;;;1.20;;
7402;SDS011;3742;48.770;11.440;2022-09-09T14:52:18;4.53;;;1.57;;
7402;SDS011;3742;48.770;11.440;2022-09-09T14:54:54;2.43;;;1.23;;
7402;SDS011;3742;48.770;11.440;2022-09-09T14:57:26;2.30;;;1.40;;
7402;SDS011;3742;48.770;11.440;2022-09-09T14:59:55;2.57;;;1.27;;
7402;SDS011;3742;48.770;11.440;2022-09-09T15:02:24;2.67;;;1.23;;
7402;SDS011;3742;48.770;11.440;2022-09-09T15:05:00;4.07;;;1.33;;
7402;SDS011;3742;48.770;11.440;2022-09-09T15:07:30;3.77;;;1.20;;
7402;SDS011;3742;48.770;11.440;2022-09-09T15:10:02;3.67;;;1.23;;
7402;SDS011;3742;48.770;11.440;2022-09-09T15:12:40;5.30;;;1.80;;
7402;SDS011;3742;48.770;11.440;2022-09-09T15:15:11;5.13;;;2.40;;
7402;SDS011;3742;48.770;11.440;2022-09-09T15:17:41;3.47;;;2.20;;
7402;SDS011;3742;48.770;11.440;2022-09-09T15:20:10;3.60;;;1.70;;
7402;SDS011;3742;48.770;11.440;2022-09-09T15:22:40;4.07;;;1.40;;
7402;SDS011;3742;48.770;11.440;2022-09-09T15:25:09;3.20;;;1.47;;
7402;SDS011;3742;48.770;11.440;2022-09-09T15:27:37;7.00;;;1.40;;
7402;SDS011;3742;48.770;11.440;2022-09-09T15:30:06;3.30;;;1.10;;
7402;SDS011;3742;48.770;11.440;2022-09-09T15:32:36;3.93;;;1.30;;
7402;SDS011;3742;48.770;11.440;2022-09-09T15:35:05;3.97;;;1.67;;
7402;SDS011;3742;48.770;11.440;2022-09-09T15:37:34;4.13;;;1.90;;
7402;SDS011;3742;48.770;11.440;2022-09-09T15:40:05;2.57;;;1.40;;
7402;SDS011;3742;48.770;11.440;2022-09-09T15:42:34;1.70;;;1.23;;
7402;SDS011;3742;48.770;11.440;2022-09-09T15:45:02;2.93;;;0.90;;
7402;SDS011;3742;48.770;11.440;2022-09-09T15:47:34;2.33;;;1.30;;
7402;SDS011;3742;48.770;11.440;2022-09-09T15:50:14;2.33;;;1.13;;
7402;SDS011;3742;48.770;11.440;2022-09-09T15:52:51;2.07;;;1.00;;
7402;SDS011;3742;48.770;11.440;2022-09-09T15:55:28;2.30;;;1.03;;